sensor_id;sensor_type;location;lat;lon;timestamp;temperature;humidity
54832;DHT22;40730;53.068;6.572;2023-04-16T00:00:14;8.40;99.90
54832;DHT22;40730;53.068;6.572;2023-04-16T00:02:40;8.30;99.90
54832;DHT22;40730;53.068;6.572;2023-04-16T00:05:06;8.40;99.90
54832;DHT22;40730;53.068;6.572;2023-04-16T00:07:31;8.40;99.90
54832;DHT22;40730;53.068;6.572;2023-04-16T00:09:57;8.40;99.90
54832;DHT22;40730;53.068;6.572;2023-04-16T00:12:22;8.40;99.90
54832;DHT22;40730;53.068;6.572;2023-04-16T00:14:48;8.30;99.90
54832;DHT22;40730;53.068;6.572;2023-04-16T00:17:14;8.40;99.90
54832;DHT22;40730;53.068;6.572;2023-04-16T00:19:39;8.40;99.90
54832;DHT22;40730;53.068;6.572;2023-04-16T00:22:05;8.40;99.90
54832;DHT22;40730;53.068;6.572;2023-04-16T00:24:31;8.40;99.90
54832;DHT22;40730;53.068;6.572;2023-04-16T00:26:56;8.40;99.90
54832;DHT22;40730;53.068;6.572;2023-04-16T00:29:22;8.30;99.90
54832;DHT22;40730;53.068;6.572;2023-04-16T00:31:47;8.40;99.90
54832;DHT22;40730;53.068;6.572;2023-04-16T00:34:13;8.40;99.90
54832;DHT22;40730;53.068;6.572;2023-04-16T00:36:39;8.30;99.90
54832;DHT22;40730;53.068;6.572;2023-04-16T00:39:04;8.30;99.90
54832;DHT22;40730;53.068;6.572;2023-04-16T00:41:30;8.30;99.90
54832;DHT22;40730;53.068;6.572;2023-04-16T00:43:56;8.30;99.90
54832;DHT22;40730;53.068;6.572;2023-04-16T00:46:22;8.30;99.90
54832;DHT22;40730;53.068;6.572;2023-04-16T00:48:49;8.30;99.90
54832;DHT22;40730;53.068;6.572;2023-04-16T00:51:17;8.30;99.90
54832;DHT22;40730;53.068;6.572;2023-04-16T00:53:44;8.30;99.90
54832;DHT22;40730;53.068;6.572;2023-04-16T00:56:11;8.20;99.90
54832;DHT22;40730;53.068;6.572;2023-04-16T00:58:37;8.30;99.90
54832;DHT22;40730;53.068;6.572;2023-04-16T01:01:03;8.20;99.90
54832;DHT22;40730;53.068;6.572;2023-04-16T01:03:43;8.20;99.90
54832;DHT22;40730;53.068;6.572;2023-04-16T01:06:10;8.80;99.90
54832;DHT22;40730;53.068;6.572;2023-04-16T01:08:35;8.20;99.90
54832;DHT22;40730;53.068;6.572;2023-04-16T01:11:01;8.20;99.90
54832;DHT22;40730;53.068;6.572;2023-04-16T01:13:27;8.20;99.90
54832;DHT22;40730;53.068;6.572;2023-04-16T01:15:53;8.20;99.90
54832;DHT22;40730;53.068;6.572;2023-04-16T01:18:20;8.20;99.90
54832;DHT22;40730;53.068;6.572;2023-04-16T01:20:46;8.20;99.90
54832;DHT22;40730;53.068;6.572;2023-04-16T01:23:12;8.20;99.90
54832;DHT22;40730;53.068;6.572;2023-04-16T01:25:38;8.20;99.90
54832;DHT22;40730;53.068;6.572;2023-04-16T01:28:05;8.20;99.90
54832;DHT22;40730;53.068;6.572;2023-04-16T01:30:30;8.20;99.90
54832;DHT22;40730;53.068;6.572;2023-04-16T01:32:56;8.20;99.90
54832;DHT22;40730;53.068;6.572;2023-04-16T01:35:23;8.20;99.90
54832;DHT22;40730;53.068;6.572;2023-04-16T01:37:49;8.10;99.90
54832;DHT22;40730;53.068;6.572;2023-04-16T01:40:15;8.10;99.90
54832;DHT22;40730;53.068;6.572;2023-04-16T01:42:41;8.10;99.90
54832;DHT22;40730;53.068;6.572;2023-04-16T01:45:07;8.10;99.90
54832;DHT22;40730;53.068;6.572;2023-04-16T01:47:32;8.00;99.90
54832;DHT22;40730;53.068;6.572;2023-04-16T01:49:59;8.00;99.90
54832;DHT22;40730;53.068;6.572;2023-04-16T01:52:25;8.00;99.90
54832;DHT22;40730;53.068;6.572;2023-04-16T01:54:50;8.00;99.90
54832;DHT22;40730;53.068;6.572;2023-04-16T01:57:16;8.00;99.90
54832;DHT22;40730;53.068;6.572;2023-04-16T01:59:41;7.90;99.90
54832;DHT22;40730;53.068;6.572;2023-04-16T02:02:09;7.90;99.90
54832;DHT22;40730;53.068;6.572;2023-04-16T02:04:40;7.90;99.90
54832;DHT22;40730;53.068;6.572;2023-04-16T02:07:06;7.90;99.90
54832;DHT22;40730;53.068;6.572;2023-04-16T02:09:39;7.90;99.90
54832;DHT22;40730;53.068;6.572;2023-04-16T02:12:05;7.90;99.90
54832;DHT22;40730;53.068;6.572;2023-04-16T02:14:31;7.90;99.90
54832;DHT22;40730;53.068;6.572;2023-04-16T02:16:57;7.90;99.90
54832;DHT22;40730;53.068;6.572;2023-04-16T02:19:23;7.90;99.90
54832;DHT22;40730;53.068;6.572;2023-04-16T02:21:50;8.00;99.90
54832;DHT22;40730;53.068;6.572;2023-04-16T02:24:17;8.00;99.90
54832;DHT22;40730;53.068;6.572;2023-04-16T02:26:43;8.00;99.90
54832;DHT22;40730;53.068;6.572;2023-04-16T02:29:09;8.00;99.90
54832;DHT22;40730;53.068;6.572;2023-04-16T02:31:35;8.00;99.90
54832;DHT22;40730;53.068;6.572;2023-04-16T02:34:01;8.00;99.90
54832;DHT22;40730;53.068;6.572;2023-04-16T02:36:27;8.00;99.90
54832;DHT22;40730;53.068;6.572;2023-04-16T02:38:53;8.10;99.90
54832;DHT22;40730;53.068;6.572;2023-04-16T02:41:18;8.20;99.90
54832;DHT22;40730;53.068;6.572;2023-04-16T02:43:44;8.10;99.90
54832;DHT22;40730;53.068;6.572;2023-04-16T02:46:09;8.10;99.90
54832;DHT22;40730;53.068;6.572;2023-04-16T02:48:35;8.00;99.90
54832;DHT22;40730;53.068;6.572;2023-04-16T02:51:00;8.00;99.90
54832;DHT22;40730;53.068;6.572;2023-04-16T02:53:26;8.10;99.90
54832;DHT22;40730;53.068;6.572;2023-04-16T02:55:53;8.10;99.90
54832;DHT22;40730;53.068;6.572;2023-04-16T02:58:19;8.10;99.90
54832;DHT22;40730;53.068;6.572;2023-04-16T03:00:45;8.10;99.90
54832;DHT22;40730;53.068;6.572;2023-04-16T03:03:11;8.10;99.90
54832;DHT22;40730;53.068;6.572;2023-04-16T03:05:37;8.00;99.90
54832;DHT22;40730;53.068;6.572;2023-04-16T03:08:03;8.00;99.90
54832;DHT22;40730;53.068;6.572;2023-04-16T03:10:28;8.00;99.90
54832;DHT22;40730;53.068;6.572;2023-04-16T03:12:54;8.00;99.90
54832;DHT22;40730;53.068;6.572;2023-04-16T03:15:20;8.00;99.90
54832;DHT22;40730;53.068;6.572;2023-04-16T03:17:45;8.00;99.90
54832;DHT22;40730;53.068;6.572;2023-04-16T03:20:11;8.00;99.90
54832;DHT22;40730;53.068;6.572;2023-04-16T03:22:40;7.90;99.90
54832;DHT22;40730;53.068;6.572;2023-04-16T03:25:06;8.00;99.90
54832;DHT22;40730;53.068;6.572;2023-04-16T03:27:32;8.00;99.90
54832;DHT22;40730;53.068;6.572;2023-04-16T03:29:58;7.90;99.90
54832;DHT22;40730;53.068;6.572;2023-04-16T03:32:23;7.90;99.90
54832;DHT22;40730;53.068;6.572;2023-04-16T03:34:49;7.90;99.90
54832;DHT22;40730;53.068;6.572;2023-04-16T03:37:15;7.90;99.90
54832;DHT22;40730;53.068;6.572;2023-04-16T03:39:41;7.90;99.90
54832;DHT22;40730;53.068;6.572;2023-04-16T03:42:06;7.80;99.90
54832;DHT22;40730;53.068;6.572;2023-04-16T03:44:32;7.80;99.90
54832;DHT22;40730;53.068;6.572;2023-04-16T03:46:58;7.80;99.90
54832;DHT22;40730;53.068;6.572;2023-04-16T03:49:23;7.90;99.90
54832;DHT22;40730;53.068;6.572;2023-04-16T03:51:49;7.80;99.90
54832;DHT22;40730;53.068;6.572;2023-04-16T03:54:15;7.80;99.90
54832;DHT22;40730;53.068;6.572;2023-04-16T03:56:41;7.80;99.90
54832;DHT22;40730;53.068;6.572;2023-04-16T03:59:06;7.80;99.90
54832;DHT22;40730;53.068;6.572;2023-04-16T04:01:32;7.80;99.90
54832;DHT22;40730;53.068;6.572;2023-04-16T04:03:58;7.80;99.90
54832;DHT22;40730;53.068;6.572;2023-04-16T04:06:23;7.80;99.90
54832;DHT22;40730;53.068;6.572;2023-04-16T04:08:49;7.80;99.90
54832;DHT22;40730;53.068;6.572;2023-04-16T04:11:14;7.80;99.90
54832;DHT22;40730;53.068;6.572;2023-04-16T04:13:40;7.80;99.90
54832;DHT22;40730;53.068;6.572;2023-04-16T04:16:06;7.80;99.90
54832;DHT22;40730;53.068;6.572;2023-04-16T04:18:32;7.80;99.90
54832;DHT22;40730;53.068;6.572;2023-04-16T04:20:57;7.80;99.90
54832;DHT22;40730;53.068;6.572;2023-04-16T04:23:23;7.80;99.90
54832;DHT22;40730;53.068;6.572;2023-04-16T04:25:48;7.80;99.90
54832;DHT22;40730;53.068;6.572;2023-04-16T04:28:14;7.80;99.90
54832;DHT22;40730;53.068;6.572;2023-04-16T04:30:40;7.90;99.90
54832;DHT22;40730;53.068;6.572;2023-04-16T04:33:06;7.80;99.90
54832;DHT22;40730;53.068;6.572;2023-04-16T04:35:32;7.90;99.90
54832;DHT22;40730;53.068;6.572;2023-04-16T04:37:57;7.80;99.90
54832;DHT22;40730;53.068;6.572;2023-04-16T04:40:23;7.80;99.90
54832;DHT22;40730;53.068;6.572;2023-04-16T04:42:48;7.90;99.90
54832;DHT22;40730;53.068;6.572;2023-04-16T04:45:14;7.80;99.90
54832;DHT22;40730;53.068;6.572;2023-04-16T04:47:40;7.90;99.90
54832;DHT22;40730;53.068;6.572;2023-04-16T04:50:06;7.90;99.90
54832;DHT22;40730;53.068;6.572;2023-04-16T04:52:32;7.90;99.90
54832;DHT22;40730;53.068;6.572;2023-04-16T04:54:57;7.80;99.90
54832;DHT22;40730;53.068;6.572;2023-04-16T04:57:23;7.90;99.90
54832;DHT22;40730;53.068;6.572;2023-04-16T04:59:48;7.90;99.90
54832;DHT22;40730;53.068;6.572;2023-04-16T05:02:14;7.90;99.90
54832;DHT22;40730;53.068;6.572;2023-04-16T05:04:40;7.80;99.90
54832;DHT22;40730;53.068;6.572;2023-04-16T05:07:05;7.90;99.90
54832;DHT22;40730;53.068;6.572;2023-04-16T05:09:31;7.90;99.90
54832;DHT22;40730;53.068;6.572;2023-04-16T05:11:57;7.90;99.90
54832;DHT22;40730;53.068;6.572;2023-04-16T05:14:23;7.90;99.90
54832;DHT22;40730;53.068;6.572;2023-04-16T05:16:48;7.90;99.90
54832;DHT22;40730;53.068;6.572;2023-04-16T05:19:15;7.90;99.90
54832;DHT22;40730;53.068;6.572;2023-04-16T05:21:41;7.90;99.90
54832;DHT22;40730;53.068;6.572;2023-04-16T05:24:07;7.90;99.90
54832;DHT22;40730;53.068;6.572;2023-04-16T05:26:32;7.90;99.90
54832;DHT22;40730;53.068;6.572;2023-04-16T05:28:58;7.90;99.90
54832;DHT22;40730;53.068;6.572;2023-04-16T05:31:23;7.90;99.90
54832;DHT22;40730;53.068;6.572;2023-04-16T05:33:49;7.90;99.90
54832;DHT22;40730;53.068;6.572;2023-04-16T05:36:14;7.90;99.90
54832;DHT22;40730;53.068;6.572;2023-04-16T05:38:40;7.90;99.90
54832;DHT22;40730;53.068;6.572;2023-04-16T05:41:06;7.80;99.90
54832;DHT22;40730;53.068;6.572;2023-04-16T05:43:31;7.80;99.90
54832;DHT22;40730;53.068;6.572;2023-04-16T05:45:57;7.80;99.90
54832;DHT22;40730;53.068;6.572;2023-04-16T05:48:23;7.80;99.90
54832;DHT22;40730;53.068;6.572;2023-04-16T05:50:48;7.80;99.90
54832;DHT22;40730;53.068;6.572;2023-04-16T05:53:15;7.80;99.90
54832;DHT22;40730;53.068;6.572;2023-04-16T05:55:43;7.80;99.90
54832;DHT22;40730;53.068;6.572;2023-04-16T05:58:08;7.80;99.90
54832;DHT22;40730;53.068;6.572;2023-04-16T06:00:34;7.80;99.90
54832;DHT22;40730;53.068;6.572;2023-04-16T06:03:01;7.70;99.90
54832;DHT22;40730;53.068;6.572;2023-04-16T06:05:27;7.80;99.90
54832;DHT22;40730;53.068;6.572;2023-04-16T06:07:53;7.70;99.90
54832;DHT22;40730;53.068;6.572;2023-04-16T06:10:18;7.80;99.90
54832;DHT22;40730;53.068;6.572;2023-04-16T06:12:44;7.80;99.90
54832;DHT22;40730;53.068;6.572;2023-04-16T06:15:10;7.80;99.90
54832;DHT22;40730;53.068;6.572;2023-04-16T06:17:35;7.80;99.90
54832;DHT22;40730;53.068;6.572;2023-04-16T06:20:01;7.80;99.90
54832;DHT22;40730;53.068;6.572;2023-04-16T06:22:27;7.80;99.90
54832;DHT22;40730;53.068;6.572;2023-04-16T06:24:52;7.80;99.90
54832;DHT22;40730;53.068;6.572;2023-04-16T06:27:18;7.80;99.90
54832;DHT22;40730;53.068;6.572;2023-04-16T06:29:44;7.80;99.90
54832;DHT22;40730;53.068;6.572;2023-04-16T06:32:09;7.90;99.90
54832;DHT22;40730;53.068;6.572;2023-04-16T06:34:36;7.90;99.90
54832;DHT22;40730;53.068;6.572;2023-04-16T06:37:02;7.90;99.90
54832;DHT22;40730;53.068;6.572;2023-04-16T06:39:28;7.90;99.90
54832;DHT22;40730;53.068;6.572;2023-04-16T06:41:53;7.90;99.90
54832;DHT22;40730;53.068;6.572;2023-04-16T06:44:19;7.90;99.90
54832;DHT22;40730;53.068;6.572;2023-04-16T06:46:44;8.00;99.90
54832;DHT22;40730;53.068;6.572;2023-04-16T06:49:10;8.00;99.90
54832;DHT22;40730;53.068;6.572;2023-04-16T06:51:36;8.00;99.90
54832;DHT22;40730;53.068;6.572;2023-04-16T06:54:01;8.30;99.90
54832;DHT22;40730;53.068;6.572;2023-04-16T06:56:27;8.10;99.90
54832;DHT22;40730;53.068;6.572;2023-04-16T06:58:52;8.20;99.90
54832;DHT22;40730;53.068;6.572;2023-04-16T07:01:18;8.30;99.90
54832;DHT22;40730;53.068;6.572;2023-04-16T07:03:43;8.40;99.90
54832;DHT22;40730;53.068;6.572;2023-04-16T07:06:09;8.50;99.90
54832;DHT22;40730;53.068;6.572;2023-04-16T07:08:35;8.60;99.90
54832;DHT22;40730;53.068;6.572;2023-04-16T07:11:00;8.60;99.90
54832;DHT22;40730;53.068;6.572;2023-04-16T07:13:26;8.70;99.90
54832;DHT22;40730;53.068;6.572;2023-04-16T07:15:52;8.80;99.90
54832;DHT22;40730;53.068;6.572;2023-04-16T07:18:18;8.80;99.90
54832;DHT22;40730;53.068;6.572;2023-04-16T07:20:44;8.80;99.90
54832;DHT22;40730;53.068;6.572;2023-04-16T07:23:10;8.90;99.90
54832;DHT22;40730;53.068;6.572;2023-04-16T07:25:35;9.00;99.90
54832;DHT22;40730;53.068;6.572;2023-04-16T07:28:02;9.00;99.90
54832;DHT22;40730;53.068;6.572;2023-04-16T07:30:28;9.10;99.90
54832;DHT22;40730;53.068;6.572;2023-04-16T07:33:01;9.10;99.90
54832;DHT22;40730;53.068;6.572;2023-04-16T07:35:27;9.10;99.90
54832;DHT22;40730;53.068;6.572;2023-04-16T07:37:53;9.10;99.90
54832;DHT22;40730;53.068;6.572;2023-04-16T07:40:18;9.10;99.90
54832;DHT22;40730;53.068;6.572;2023-04-16T07:42:44;9.10;99.90
54832;DHT22;40730;53.068;6.572;2023-04-16T07:45:10;9.10;99.90
54832;DHT22;40730;53.068;6.572;2023-04-16T07:47:35;9.20;99.90
54832;DHT22;40730;53.068;6.572;2023-04-16T07:50:01;9.20;99.90
54832;DHT22;40730;53.068;6.572;2023-04-16T07:52:27;9.30;99.90
54832;DHT22;40730;53.068;6.572;2023-04-16T07:54:52;9.30;99.90
54832;DHT22;40730;53.068;6.572;2023-04-16T07:57:18;9.30;99.90
54832;DHT22;40730;53.068;6.572;2023-04-16T07:59:43;9.30;99.90
54832;DHT22;40730;53.068;6.572;2023-04-16T08:02:13;9.30;99.90
54832;DHT22;40730;53.068;6.572;2023-04-16T08:04:39;9.30;99.90
54832;DHT22;40730;53.068;6.572;2023-04-16T08:07:05;9.30;99.90
54832;DHT22;40730;53.068;6.572;2023-04-16T08:09:31;9.20;99.90
54832;DHT22;40730;53.068;6.572;2023-04-16T08:11:56;9.20;99.90
54832;DHT22;40730;53.068;6.572;2023-04-16T08:14:22;9.30;99.90
54832;DHT22;40730;53.068;6.572;2023-04-16T08:16:48;9.20;99.90
54832;DHT22;40730;53.068;6.572;2023-04-16T08:19:14;9.20;99.90
54832;DHT22;40730;53.068;6.572;2023-04-16T08:21:39;9.20;99.90
54832;DHT22;40730;53.068;6.572;2023-04-16T08:24:05;9.20;99.90
54832;DHT22;40730;53.068;6.572;2023-04-16T08:26:31;9.20;99.90
54832;DHT22;40730;53.068;6.572;2023-04-16T08:28:56;9.30;99.90
54832;DHT22;40730;53.068;6.572;2023-04-16T08:31:22;9.40;99.90
54832;DHT22;40730;53.068;6.572;2023-04-16T08:33:47;9.50;99.90
54832;DHT22;40730;53.068;6.572;2023-04-16T08:36:13;9.60;99.90
54832;DHT22;40730;53.068;6.572;2023-04-16T08:38:39;9.70;99.90
54832;DHT22;40730;53.068;6.572;2023-04-16T08:41:08;9.80;99.90
54832;DHT22;40730;53.068;6.572;2023-04-16T08:43:37;9.90;99.90
54832;DHT22;40730;53.068;6.572;2023-04-16T08:46:04;10.00;99.90
54832;DHT22;40730;53.068;6.572;2023-04-16T08:48:33;10.20;99.90
54832;DHT22;40730;53.068;6.572;2023-04-16T08:51:00;10.20;99.90
54832;DHT22;40730;53.068;6.572;2023-04-16T08:53:34;10.40;99.90
54832;DHT22;40730;53.068;6.572;2023-04-16T08:56:03;10.60;99.90
54832;DHT22;40730;53.068;6.572;2023-04-16T08:58:31;10.70;99.90
54832;DHT22;40730;53.068;6.572;2023-04-16T09:01:01;10.80;99.90
54832;DHT22;40730;53.068;6.572;2023-04-16T09:03:28;10.90;99.90
54832;DHT22;40730;53.068;6.572;2023-04-16T09:05:55;11.10;99.90
54832;DHT22;40730;53.068;6.572;2023-04-16T09:08:24;11.10;99.90
54832;DHT22;40730;53.068;6.572;2023-04-16T09:10:50;11.10;99.90
54832;DHT22;40730;53.068;6.572;2023-04-16T09:13:16;11.10;99.90
54832;DHT22;40730;53.068;6.572;2023-04-16T09:15:44;11.20;99.90
54832;DHT22;40730;53.068;6.572;2023-04-16T09:18:10;11.40;99.90
54832;DHT22;40730;53.068;6.572;2023-04-16T09:20:37;11.50;99.90
54832;DHT22;40730;53.068;6.572;2023-04-16T09:23:03;11.70;99.90
54832;DHT22;40730;53.068;6.572;2023-04-16T09:25:32;11.60;99.90
54832;DHT22;40730;53.068;6.572;2023-04-16T09:27:59;11.60;99.90
54832;DHT22;40730;53.068;6.572;2023-04-16T09:30:26;11.70;99.90
54832;DHT22;40730;53.068;6.572;2023-04-16T09:33:10;11.80;99.90
54832;DHT22;40730;53.068;6.572;2023-04-16T09:35:47;11.90;99.90
54832;DHT22;40730;53.068;6.572;2023-04-16T09:38:13;12.00;99.90
54832;DHT22;40730;53.068;6.572;2023-04-16T09:40:39;12.00;99.90
54832;DHT22;40730;53.068;6.572;2023-04-16T09:43:15;12.00;99.90
54832;DHT22;40730;53.068;6.572;2023-04-16T09:48:13;12.30;99.90
54832;DHT22;40730;53.068;6.572;2023-04-16T09:50:48;12.40;99.90
54832;DHT22;40730;53.068;6.572;2023-04-16T09:53:23;12.40;99.90
54832;DHT22;40730;53.068;6.572;2023-04-16T09:55:49;12.60;99.90
54832;DHT22;40730;53.068;6.572;2023-04-16T09:58:18;12.70;99.90
54832;DHT22;40730;53.068;6.572;2023-04-16T10:00:44;12.80;99.90
54832;DHT22;40730;53.068;6.572;2023-04-16T10:03:10;12.80;99.90
54832;DHT22;40730;53.068;6.572;2023-04-16T10:05:35;12.90;99.90
54832;DHT22;40730;53.068;6.572;2023-04-16T10:08:01;13.00;99.90
54832;DHT22;40730;53.068;6.572;2023-04-16T10:10:28;13.10;99.90
54832;DHT22;40730;53.068;6.572;2023-04-16T10:12:54;13.30;99.90
54832;DHT22;40730;53.068;6.572;2023-04-16T10:15:21;13.30;99.90
54832;DHT22;40730;53.068;6.572;2023-04-16T10:17:46;13.30;99.90
54832;DHT22;40730;53.068;6.572;2023-04-16T10:20:13;13.40;99.90
54832;DHT22;40730;53.068;6.572;2023-04-16T10:22:40;13.40;99.90
54832;DHT22;40730;53.068;6.572;2023-04-16T10:25:06;13.40;99.90
54832;DHT22;40730;53.068;6.572;2023-04-16T10:27:33;13.50;99.90
54832;DHT22;40730;53.068;6.572;2023-04-16T10:29:59;13.50;99.90
54832;DHT22;40730;53.068;6.572;2023-04-16T10:32:25;13.50;99.90
54832;DHT22;40730;53.068;6.572;2023-04-16T10:34:54;13.70;99.90
54832;DHT22;40730;53.068;6.572;2023-04-16T10:37:28;13.70;99.90
54832;DHT22;40730;53.068;6.572;2023-04-16T10:39:54;13.80;99.90
54832;DHT22;40730;53.068;6.572;2023-04-16T10:42:20;13.80;99.90
54832;DHT22;40730;53.068;6.572;2023-04-16T10:44:46;13.70;99.90
54832;DHT22;40730;53.068;6.572;2023-04-16T10:47:12;13.60;99.90
54832;DHT22;40730;53.068;6.572;2023-04-16T10:49:39;13.70;99.90
54832;DHT22;40730;53.068;6.572;2023-04-16T10:52:12;13.80;99.90
54832;DHT22;40730;53.068;6.572;2023-04-16T10:54:39;13.80;99.90
54832;DHT22;40730;53.068;6.572;2023-04-16T10:57:13;13.80;99.90
54832;DHT22;40730;53.068;6.572;2023-04-16T10:59:41;14.00;99.90
54832;DHT22;40730;53.068;6.572;2023-04-16T11:02:12;14.10;99.90
54832;DHT22;40730;53.068;6.572;2023-04-16T11:04:40;14.40;99.90
54832;DHT22;40730;53.068;6.572;2023-04-16T11:10:04;14.10;99.90
54832;DHT22;40730;53.068;6.572;2023-04-16T11:12:38;14.10;99.90
54832;DHT22;40730;53.068;6.572;2023-04-16T11:15:06;13.90;99.90
54832;DHT22;40730;53.068;6.572;2023-04-16T11:17:40;13.90;99.90
54832;DHT22;40730;53.068;6.572;2023-04-16T11:20:07;13.70;99.90
54832;DHT22;40730;53.068;6.572;2023-04-16T11:22:37;13.80;99.90
54832;DHT22;40730;53.068;6.572;2023-04-16T11:25:03;13.70;99.90
54832;DHT22;40730;53.068;6.572;2023-04-16T11:27:30;13.80;99.90
54832;DHT22;40730;53.068;6.572;2023-04-16T11:29:57;13.60;99.90
54832;DHT22;40730;53.068;6.572;2023-04-16T11:32:23;13.60;99.90
54832;DHT22;40730;53.068;6.572;2023-04-16T11:34:49;13.50;99.90
54832;DHT22;40730;53.068;6.572;2023-04-16T11:37:18;13.40;99.90
54832;DHT22;40730;53.068;6.572;2023-04-16T11:39:51;13.30;99.90
54832;DHT22;40730;53.068;6.572;2023-04-16T11:42:20;13.30;99.90
54832;DHT22;40730;53.068;6.572;2023-04-16T11:44:55;13.30;99.90
54832;DHT22;40730;53.068;6.572;2023-04-16T11:47:22;13.40;99.90
54832;DHT22;40730;53.068;6.572;2023-04-16T11:49:48;13.50;99.90
54832;DHT22;40730;53.068;6.572;2023-04-16T11:52:27;13.80;99.90
54832;DHT22;40730;53.068;6.572;2023-04-16T11:54:54;13.80;99.90
54832;DHT22;40730;53.068;6.572;2023-04-16T11:57:27;13.60;99.90
54832;DHT22;40730;53.068;6.572;2023-04-16T11:59:53;13.60;99.90
54832;DHT22;40730;53.068;6.572;2023-04-16T12:02:36;13.60;99.90
54832;DHT22;40730;53.068;6.572;2023-04-16T12:05:04;13.60;99.90
54832;DHT22;40730;53.068;6.572;2023-04-16T12:07:30;13.60;99.90
54832;DHT22;40730;53.068;6.572;2023-04-16T12:10:06;13.60;99.90
54832;DHT22;40730;53.068;6.572;2023-04-16T12:12:32;13.60;99.90
54832;DHT22;40730;53.068;6.572;2023-04-16T12:15:01;13.70;99.90
54832;DHT22;40730;53.068;6.572;2023-04-16T12:17:31;13.80;99.90
54832;DHT22;40730;53.068;6.572;2023-04-16T12:20:02;13.70;99.90
54832;DHT22;40730;53.068;6.572;2023-04-16T12:22:31;13.80;99.90
54832;DHT22;40730;53.068;6.572;2023-04-16T12:25:18;13.80;99.90
54832;DHT22;40730;53.068;6.572;2023-04-16T12:27:51;14.00;99.90
54832;DHT22;40730;53.068;6.572;2023-04-16T12:30:18;13.90;99.90
54832;DHT22;40730;53.068;6.572;2023-04-16T12:32:46;13.70;99.90
54832;DHT22;40730;53.068;6.572;2023-04-16T12:35:12;13.80;99.90
54832;DHT22;40730;53.068;6.572;2023-04-16T12:37:38;13.80;99.90
54832;DHT22;40730;53.068;6.572;2023-04-16T12:40:05;13.60;99.90
54832;DHT22;40730;53.068;6.572;2023-04-16T12:42:31;13.50;99.90
54832;DHT22;40730;53.068;6.572;2023-04-16T12:45:04;13.60;99.90
54832;DHT22;40730;53.068;6.572;2023-04-16T12:47:33;13.60;99.90
54832;DHT22;40730;53.068;6.572;2023-04-16T12:49:59;13.40;99.90
54832;DHT22;40730;53.068;6.572;2023-04-16T12:52:24;13.30;99.90
54832;DHT22;40730;53.068;6.572;2023-04-16T12:54:51;13.20;99.90
54832;DHT22;40730;53.068;6.572;2023-04-16T12:57:17;13.40;99.90
54832;DHT22;40730;53.068;6.572;2023-04-16T12:59:42;13.50;99.90
54832;DHT22;40730;53.068;6.572;2023-04-16T13:02:08;13.70;99.90
54832;DHT22;40730;53.068;6.572;2023-04-16T13:04:33;13.70;99.90
54832;DHT22;40730;53.068;6.572;2023-04-16T13:06:59;13.60;99.90
54832;DHT22;40730;53.068;6.572;2023-04-16T13:09:25;14.00;99.90
54832;DHT22;40730;53.068;6.572;2023-04-16T13:11:51;14.40;99.90
54832;DHT22;40730;53.068;6.572;2023-04-16T13:14:19;14.50;99.90
54832;DHT22;40730;53.068;6.572;2023-04-16T13:16:45;14.20;99.90
54832;DHT22;40730;53.068;6.572;2023-04-16T13:19:10;14.10;99.90
54832;DHT22;40730;53.068;6.572;2023-04-16T13:21:36;13.90;99.90
54832;DHT22;40730;53.068;6.572;2023-04-16T13:24:02;13.90;99.90
54832;DHT22;40730;53.068;6.572;2023-04-16T13:26:27;13.60;99.90
54832;DHT22;40730;53.068;6.572;2023-04-16T13:28:53;13.60;99.90
54832;DHT22;40730;53.068;6.572;2023-04-16T13:31:19;13.40;99.90
54832;DHT22;40730;53.068;6.572;2023-04-16T13:33:46;13.40;99.90
54832;DHT22;40730;53.068;6.572;2023-04-16T13:36:12;13.40;99.90
54832;DHT22;40730;53.068;6.572;2023-04-16T13:38:38;13.30;99.90
54832;DHT22;40730;53.068;6.572;2023-04-16T13:41:04;13.30;99.90
54832;DHT22;40730;53.068;6.572;2023-04-16T13:43:30;13.20;99.90
54832;DHT22;40730;53.068;6.572;2023-04-16T13:45:56;13.20;99.90
54832;DHT22;40730;53.068;6.572;2023-04-16T13:48:22;13.20;99.90
54832;DHT22;40730;53.068;6.572;2023-04-16T13:50:47;13.20;99.90
54832;DHT22;40730;53.068;6.572;2023-04-16T13:53:13;13.30;99.90
54832;DHT22;40730;53.068;6.572;2023-04-16T13:55:38;13.10;99.90
54832;DHT22;40730;53.068;6.572;2023-04-16T13:58:04;13.10;99.90
54832;DHT22;40730;53.068;6.572;2023-04-16T14:00:31;13.10;99.90
54832;DHT22;40730;53.068;6.572;2023-04-16T14:02:57;13.20;99.90
54832;DHT22;40730;53.068;6.572;2023-04-16T14:05:22;13.10;99.90
54832;DHT22;40730;53.068;6.572;2023-04-16T14:07:48;13.10;99.90
54832;DHT22;40730;53.068;6.572;2023-04-16T14:10:14;13.10;99.90
54832;DHT22;40730;53.068;6.572;2023-04-16T14:12:41;13.20;99.90
54832;DHT22;40730;53.068;6.572;2023-04-16T14:15:07;13.30;99.90
54832;DHT22;40730;53.068;6.572;2023-04-16T14:17:34;13.40;99.90
54832;DHT22;40730;53.068;6.572;2023-04-16T14:20:02;13.40;99.90
54832;DHT22;40730;53.068;6.572;2023-04-16T14:22:28;13.50;99.90
54832;DHT22;40730;53.068;6.572;2023-04-16T14:24:53;13.50;99.90
54832;DHT22;40730;53.068;6.572;2023-04-16T14:27:19;13.60;99.90
54832;DHT22;40730;53.068;6.572;2023-04-16T14:29:45;13.60;99.90
54832;DHT22;40730;53.068;6.572;2023-04-16T14:32:11;13.50;99.90
54832;DHT22;40730;53.068;6.572;2023-04-16T14:34:37;13.40;99.90
54832;DHT22;40730;53.068;6.572;2023-04-16T14:37:03;13.30;99.90
54832;DHT22;40730;53.068;6.572;2023-04-16T14:39:28;13.40;99.90
54832;DHT22;40730;53.068;6.572;2023-04-16T14:41:54;13.50;99.90
54832;DHT22;40730;53.068;6.572;2023-04-16T14:44:20;13.60;99.90
54832;DHT22;40730;53.068;6.572;2023-04-16T14:46:47;13.70;99.90
54832;DHT22;40730;53.068;6.572;2023-04-16T14:49:13;13.80;99.90
54832;DHT22;40730;53.068;6.572;2023-04-16T14:51:39;14.00;99.90
54832;DHT22;40730;53.068;6.572;2023-04-16T14:54:05;14.00;99.90
54832;DHT22;40730;53.068;6.572;2023-04-16T14:56:31;13.90;99.90
54832;DHT22;40730;53.068;6.572;2023-04-16T14:58:56;13.90;99.90
54832;DHT22;40730;53.068;6.572;2023-04-16T15:01:22;14.00;99.90
54832;DHT22;40730;53.068;6.572;2023-04-16T15:03:47;13.90;99.90
54832;DHT22;40730;53.068;6.572;2023-04-16T15:06:14;13.90;99.90
54832;DHT22;40730;53.068;6.572;2023-04-16T15:08:40;14.00;99.90
54832;DHT22;40730;53.068;6.572;2023-04-16T15:11:06;14.30;99.90
54832;DHT22;40730;53.068;6.572;2023-04-16T15:13:31;14.70;99.90
54832;DHT22;40730;53.068;6.572;2023-04-16T15:16:00;14.80;99.90
54832;DHT22;40730;53.068;6.572;2023-04-16T15:18:27;14.90;99.90
54832;DHT22;40730;53.068;6.572;2023-04-16T15:20:53;15.00;99.90
54832;DHT22;40730;53.068;6.572;2023-04-16T15:23:20;15.10;99.90
54832;DHT22;40730;53.068;6.572;2023-04-16T15:25:46;15.30;99.90
54832;DHT22;40730;53.068;6.572;2023-04-16T15:28:11;15.30;99.90
54832;DHT22;40730;53.068;6.572;2023-04-16T15:30:40;15.40;99.90
54832;DHT22;40730;53.068;6.572;2023-04-16T15:33:10;15.30;99.90
54832;DHT22;40730;53.068;6.572;2023-04-16T15:35:36;15.30;99.90
54832;DHT22;40730;53.068;6.572;2023-04-16T15:38:08;15.20;99.90
54832;DHT22;40730;53.068;6.572;2023-04-16T15:40:34;15.20;99.90